Time;durP1;ratioP1;P1;durP2;ratioP2;P2;SDS_P1;SDS_P2;PMS_P1;PMS_P2;Temp;Humidity;BMP_temperature;BMP_pressure;BME280_temperature;BME280_humidity;BME280_pressure;Samples;Min_cycle;Max_cycle;Signal;HPM_P1;HPM_P2
2021/04/13 17:03:22;;;;;;;40.00;9.57;;;19.90;43.50;;;;;;5090481;27;20360;-64
2021/04/13 17:05:59;;;;;;;47.83;10.88;;;18.80;48.20;;;;;;5077842;28;20040;-71
2021/04/13 17:08:44;;;;;;;46.42;11.05;;;18.50;48.20;;;;;;5078492;28;20486;-69
2021/04/13 17:11:16;;;;;;;32.15;9.30;;;18.60;47.90;;;;;;5069957;28;20111;-68
2021/04/13 17:13:44;;;;;;;40.90;9.35;;;18.50;47.90;;;;;;5084122;28;20026;-68
2021/04/13 17:16:35;;;;;;;34.70;9.10;;;18.40;48.50;;;;;;5082590;28;20536;-69
2021/04/13 17:19:07;;;;;;;28.20;8.13;;;18.50;48.40;;;;;;5080134;28;20034;-68
2021/04/13 17:21:41;;;;;;;30.40;8.13;;;18.40;48.40;;;;;;5083354;28;20780;-69
2021/04/13 17:24:13;;;;;;;24.52;7.18;;;18.40;48.50;;;;;;5092490;28;20059;-68
2021/04/13 17:26:40;;;;;;;28.05;8.07;;;18.20;49.00;;;;;;5080063;28;20036;-68
2021/04/13 17:29:08;;;;;;;40.30;9.65;;;18.10;49.40;;;;;;5093893;28;20035;-72
2021/04/13 17:31:37;;;;;;;30.52;10.77;;;18.10;49.60;;;;;;5093096;28;20028;-72
2021/04/13 17:34:03;;;;;;;26.35;7.97;;;18.10;49.70;;;;;;5088347;28;20025;-72
2021/04/13 17:36:35;;;;;;;30.35;7.85;;;18.10;49.60;;;;;;5077135;28;20436;-73
2021/04/13 17:39:09;;;;;;;;;;;18.20;50.10;;;;;;5090554;28;20110;-72
2021/04/13 17:41:39;;;;;;;26.20;6.78;;;18.20;50.70;;;;;;5101048;28;19955;-72
2021/04/13 17:44:18;;;;;;;23.73;6.20;;;18.40;50.00;;;;;;5090479;28;20048;-72
2021/04/13 17:46:50;;;;;;;20.73;6.70;;;18.90;48.70;;;;;;5082857;28;20425;-74
2021/04/13 17:49:19;;;;;;;25.35;6.05;;;19.50;47.30;;;;;;5066865;28;20035;-71
2021/04/13 17:51:46;;;;;;;17.83;6.05;;;19.90;46.60;;;;;;5067951;28;20067;-71
2021/04/13 17:54:14;;;;;;;22.30;5.65;;;19.80;46.20;;;;;;5067457;28;20025;-68
2021/04/13 17:56:51;;;;;;;17.13;5.60;;;19.70;46.20;;;;;;5075386;28;20481;-65
2021/04/13 17:59:18;;;;;;;18.70;5.55;;;19.50;46.30;;;;;;5091032;28;20614;-70
2021/04/13 18:01:48;;;;;;;18.58;4.72;;;19.40;47.30;;;;;;5084985;28;20070;-70
2021/04/13 18:04:28;;;;;;;25.98;5.65;;;19.20;47.70;;;;;;5090876;28;20028;-70
2021/04/13 18:07:01;;;;;;;18.03;5.53;;;19.00;47.90;;;;;;5081437;28;20073;-69
2021/04/13 18:09:36;;;;;;;18.10;5.10;;;18.90;48.30;;;;;;5086208;28;20012;-70
2021/04/13 18:12:24;;;;;;;14.25;4.07;;;18.80;48.50;;;;;;5085421;28;20024;-70
2021/04/13 18:14:54;;;;;;;15.02;4.50;;;18.70;48.90;;;;;;5071181;28;20032;-70
2021/04/13 18:17:35;;;;;;;15.18;4.63;;;18.60;49.00;;;;;;5074094;28;20047;-69
2021/04/13 18:20:07;;;;;;;18.35;4.60;;;18.50;49.20;;;;;;5072743;28;20430;-69
2021/04/13 18:22:35;;;;;;;16.48;4.45;;;18.40;49.40;;;;;;5071732;28;20036;-70
2021/04/13 18:25:04;;;;;;;14.32;4.47;;;18.40;50.10;;;;;;5063311;28;20052;-69
2021/04/13 18:27:41;;;;;;;13.95;4.35;;;18.30;49.70;;;;;;5081561;28;20036;-69
2021/04/13 18:30:11;;;;;;;13.68;4.15;;;18.20;49.80;;;;;;5074807;28;20071;-70
2021/04/13 18:32:45;;;;;;;12.32;3.50;;;18.20;50.00;;;;;;5081429;28;20067;-69
2021/04/13 18:35:23;;;;;;;14.70;4.10;;;18.20;50.10;;;;;;5072355;28;20029;-70
2021/04/13 18:38:19;;;;;;;10.85;3.20;;;18.10;50.20;;;;;;5072263;28;20037;-70
2021/04/13 18:40:54;;;;;;;11.15;3.58;;;18.10;50.20;;;;;;5066914;28;20043;-69
2021/04/13 18:43:26;;;;;;;11.60;3.47;;;18.00;50.30;;;;;;5075526;28;20025;-69
2021/04/13 18:45:58;;;;;;;13.40;4.53;;;18.00;50.30;;;;;;5069262;28;20021;-70
2021/04/13 18:48:30;;;;;;;14.93;5.57;;;18.00;50.60;;;;;;5071050;28;20079;-70
2021/04/13 18:51:08;;;;;;;14.23;6.55;;;18.00;50.70;;;;;;5074944;28;20024;-69
2021/04/13 18:53:40;;;;;;;13.88;4.97;;;18.10;50.50;;;;;;5068506;28;20070;-70
2021/04/13 18:56:18;;;;;;;14.73;4.18;;;18.10;50.30;;;;;;5073246;28;20032;-70
2021/04/13 18:58:50;;;;;;;12.48;4.40;;;18.20;50.10;;;;;;5083628;28;20431;-70
2021/04/13 19:01:44;;;;;;;12.48;4.05;;;18.20;49.90;;;;;;5077007;28;20020;-70
2021/04/13 19:04:12;;;;;;;15.80;3.55;;;18.30;49.90;;;;;;5051620;28;20032;-70
2021/04/13 19:06:50;;;;;;;11.25;3.45;;;18.20;49.80;;;;;;5080797;28;20047;-68
2021/04/13 19:09:22;;;;;;;10.90;3.33;;;18.20;49.90;;;;;;5074516;28;20024;-70
2021/04/13 19:11:57;;;;;;;9.15;3.40;;;18.30;50.10;;;;;;5071377;28;20127;-69
2021/04/13 19:14:29;;;;;;;11.55;3.10;;;18.30;50.00;;;;;;5072459;28;20028;-69
2021/04/13 19:16:58;;;;;;;11.95;2.75;;;18.30;50.10;;;;;;5072641;28;20028;-70
2021/04/13 19:20:04;;;;;;;13.43;3.10;;;18.20;50.10;;;;;;5072722;28;20028;-70
2021/04/13 19:22:55;;;;;;;8.63;2.90;;;18.30;50.10;;;;;;5074276;28;20055;-70
2021/04/13 19:25:23;;;;;;;;;;;18.30;50.20;;;;;;5087196;28;20020;-69
2021/04/13 19:28:06;;;;;;;10.80;2.63;;;18.20;50.20;;;;;;5071051;28;19912;-70
2021/04/13 19:30:42;;;;;;;8.65;2.88;;;18.20;50.10;;;;;;5072286;28;20024;-70
2021/04/13 19:33:39;;;;;;;9.82;2.30;;;18.30;50.20;;;;;;5059150;28;20452;-70
2021/04/13 19:36:29;;;;;;;9.07;2.65;;;18.30;50.20;;;;;;5083489;28;20020;-70
2021/04/13 19:39:01;;;;;;;6.00;2.00;;;18.20;50.30;;;;;;5082497;28;20017;-70
2021/04/13 19:41:50;;;;;;;9.63;2.67;;;18.20;50.20;;;;;;5069188;28;20028;-69
2021/04/13 19:44:21;;;;;;;7.82;2.55;;;18.20;50.50;;;;;;5071546;28;20424;-69
2021/04/13 19:46:48;;;;;;;6.82;1.95;;;18.20;50.40;;;;;;5072382;28;20020;-69
2021/04/13 19:49:20;;;;;;;7.82;2.00;;;18.20;50.50;;;;;;5071069;28;20067;-70
2021/04/13 19:51:58;;;;;;;8.18;2.13;;;18.20;50.40;;;;;;5070758;28;20562;-75
2021/04/13 19:54:30;;;;;;;7.07;2.42;;;18.20;50.30;;;;;;5074215;28;20044;-70
2021/04/13 19:56:57;;;;;;;7.22;2.10;;;18.20;50.40;;;;;;5057395;28;20551;-69
2021/04/13 19:59:35;;;;;;;8.27;2.15;;;18.30;50.20;;;;;;5068506;28;20124;-70
2021/04/13 20:02:03;;;;;;;6.43;1.80;;;18.40;49.90;;;;;;5078618;28;20024;-69
2021/04/13 20:04:32;;;;;;;9.20;2.40;;;18.50;49.70;;;;;;5068669;28;20024;-70
2021/04/13 20:07:00;;;;;;;5.32;2.05;;;18.60;49.50;;;;;;5070166;28;20103;-70
2021/04/13 20:09:25;;;;;;;4.68;1.70;;;18.70;49.30;;;;;;5069180;28;20456;-70
2021/04/13 20:11:58;;;;;;;6.13;1.80;;;18.80;49.10;;;;;;5069643;28;20071;-69
2021/04/13 20:14:30;;;;;;;5.75;1.83;;;18.90;49.00;;;;;;5069576;28;20028;-69
2021/04/13 20:17:30;;;;;;;6.22;1.67;;;18.90;48.90;;;;;;5070060;28;20051;-69
2021/04/13 20:20:03;;;;;;;9.13;2.17;;;18.90;49.00;;;;;;5071681;28;20048;-70
2021/04/13 20:22:30;;;;;;;9.32;2.00;;;18.90;49.00;;;;;;5065898;28;20035;-70
2021/04/13 20:24:59;;;;;;;7.00;2.00;;;18.90;49.30;;;;;;5070924;28;20020;-70
2021/04/13 20:27:31;;;;;;;7.25;1.70;;;18.80;49.30;;;;;;5065337;28;20070;-70
2021/04/13 20:30:12;;;;;;;5.43;1.75;;;18.80;49.50;;;;;;5081648;28;20489;-69
2021/04/13 20:32:46;;;;;;;6.72;1.98;;;18.70;49.70;;;;;;5062526;28;20040;-70
2021/04/13 20:38:22;;;;;;;8.02;2.10;;;18.60;49.70;;;;;;5065023;28;20155;-70
2021/04/13 20:40:57;;;;;;;8.18;1.88;;;18.60;50.00;;;;;;5071261;28;20024;-70
2021/04/13 20:43:26;;;;;;;4.88;1.70;;;18.60;50.00;;;;;;5071318;28;20064;-69
2021/04/13 20:45:54;;;;;;;6.40;1.70;;;18.50;50.10;;;;;;5069948;28;20025;-70
2021/04/13 20:48:42;;;;;;;3.55;1.40;;;18.50;50.20;;;;;;5071062;28;20029;-70
2021/04/13 20:51:19;;;;;;;6.40;1.75;;;18.40;50.30;;;;;;5071540;28;20029;-70
2021/04/13 20:53:56;;;;;;;4.85;1.50;;;18.40;50.40;;;;;;5069030;28;20021;-69
2021/04/13 20:56:23;;;;;;;5.95;1.60;;;18.40;50.50;;;;;;5070407;28;20029;-71
2021/04/13 20:59:08;;;;;;;4.68;1.45;;;18.30;50.70;;;;;;5071481;28;20032;-69
2021/04/13 21:01:46;;;;;;;4.75;1.65;;;18.30;50.50;;;;;;5071364;28;20078;-71
2021/04/13 21:04:20;;;;;;;6.18;1.55;;;18.30;50.80;;;;;;5068254;28;20032;-70
2021/04/13 21:09:40;;;;;;;5.72;1.70;;;18.20;51.00;;;;;;5071291;28;20104;-70
2021/04/13 21:12:11;;;;;;;4.32;1.58;;;18.10;51.00;;;;;;5068332;28;20033;-70
2021/04/13 21:15:08;;;;;;;3.70;1.33;;;18.10;51.10;;;;;;5066433;28;20460;-70
2021/04/13 21:17:36;;;;;;;4.45;1.52;;;18.00;50.80;;;;;;5059080;28;20485;-70
2021/04/13 21:20:05;;;;;;;5.68;1.40;;;18.00;51.20;;;;;;5070186;28;20024;-70
2021/04/13 21:22:54;;;;;;;4.32;1.30;;;18.00;50.80;;;;;;5069309;28;20040;-70
2021/04/13 21:25:22;;;;;;;3.25;1.30;;;18.00;51.10;;;;;;5065346;28;20060;-70
2021/04/13 21:28:04;;;;;;;4.53;1.50;;;18.00;51.00;;;;;;5069181;28;20027;-70
2021/04/13 21:30:29;;;;;;;4.90;1.50;;;18.00;51.30;;;;;;5066991;28;20021;-70
2021/04/13 21:33:03;;;;;;;4.82;1.40;;;17.90;51.30;;;;;;5058122;28;20029;-70
2021/04/13 21:35:33;;;;;;;4.88;1.55;;;17.90;51.10;;;;;;5062703;28;20502;-69
2021/04/13 21:38:13;;;;;;;3.95;1.40;;;17.90;51.50;;;;;;5084682;28;20033;-70
2021/04/13 21:40:53;;;;;;;2.77;1.23;;;17.80;51.90;;;;;;5070804;28;20030;-70
2021/04/13 21:43:22;;;;;;;2.58;1.30;;;17.80;51.20;;;;;;5065988;28;20359;-70
2021/04/13 21:46:18;;;;;;;4.00;1.52;;;17.80;51.50;;;;;;5063572;28;20386;-70
2021/04/13 21:49:12;;;;;;;4.25;1.40;;;17.70;51.50;;;;;;5060531;28;20033;-70
2021/04/13 21:51:42;;;;;;;2.83;1.20;;;17.70;51.20;;;;;;5069297;28;20043;-70
2021/04/13 21:54:35;;;;;;;3.95;1.42;;;17.70;51.20;;;;;;5074274;28;20017;-70
2021/04/13 21:57:15;;;;;;;4.30;1.40;;;17.70;51.40;;;;;;5063177;28;20024;-71
2021/04/13 21:59:51;;;;;;;2.92;1.10;;;17.70;51.40;;;;;;5071380;28;20024;-71
2021/04/13 22:02:20;;;;;;;2.88;1.30;;;17.60;51.60;;;;;;5055456;28;20029;-70
2021/04/13 22:04:48;;;;;;;2.83;0.90;;;17.60;51.60;;;;;;5070201;28;20105;-70
2021/04/13 22:07:23;;;;;;;2.70;1.30;;;17.70;51.80;;;;;;5056327;28;20021;-70
2021/04/13 22:09:53;;;;;;;2.65;1.00;;;17.60;51.80;;;;;;5062143;28;20543;-70
2021/04/13 22:12:24;;;;;;;2.45;1.10;;;17.60;51.80;;;;;;5061170;28;20154;-70
2021/04/13 22:14:53;;;;;;;4.13;1.30;;;17.60;51.80;;;;;;5073438;28;20032;-70
2021/04/13 22:17:36;;;;;;;3.72;1.20;;;17.50;52.30;;;;;;5074175;28;20074;-70
2021/04/13 22:20:29;;;;;;;3.50;1.08;;;17.50;51.90;;;;;;5068798;28;20027;-70
2021/04/13 22:22:56;;;;;;;3.90;1.17;;;17.50;52.30;;;;;;5060398;28;20077;-70
2021/04/13 22:25:26;;;;;;;2.83;1.17;;;17.50;52.30;;;;;;5053950;28;20116;-70
2021/04/13 22:28:07;;;;;;;2.78;1.10;;;17.50;52.20;;;;;;5062946;28;20536;-70
2021/04/13 22:30:41;;;;;;;2.88;1.17;;;17.40;52.20;;;;;;5072547;28;20134;-70
2021/04/13 22:33:17;;;;;;;4.32;1.20;;;17.40;52.00;;;;;;5071710;28;20033;-70
2021/04/13 22:35:51;;;;;;;2.60;1.00;;;17.40;52.40;;;;;;5071514;28;20024;-70
2021/04/13 22:39:05;;;;;;;2.90;1.15;;;17.40;51.70;;;;;;5062022;28;20485;-70
2021/04/13 22:41:34;;;;;;;5.47;1.27;;;17.30;51.70;;;;;;5049884;28;20079;-70
2021/04/13 22:44:01;;;;;;;2.55;1.20;;;17.40;51.40;;;;;;5037819;28;20528;-70
2021/04/13 22:46:30;;;;;;;4.18;1.20;;;17.40;51.60;;;;;;5051924;28;20509;-70
2021/04/13 22:48:56;;;;;;;1.80;1.00;;;17.40;51.60;;;;;;5054867;28;20394;-70
2021/04/13 22:51:27;;;;;;;3.58;1.45;;;17.40;51.30;;;;;;5067575;28;20486;-71
2021/04/13 22:53:58;;;;;;;2.67;1.00;;;17.40;52.00;;;;;;5065946;28;20038;-70
2021/04/13 22:56:52;;;;;;;1.90;0.90;;;17.30;51.70;;;;;;5073220;28;20033;-70
2021/04/13 22:59:46;;;;;;;3.65;1.20;;;17.30;52.30;;;;;;5073273;28;20028;-70
2021/04/13 23:02:13;;;;;;;2.85;1.10;;;17.30;51.60;;;;;;5056555;28;20029;-70
2021/04/13 23:04:38;;;;;;;4.53;1.23;;;17.30;51.80;;;;;;5067024;28;20025;-70
2021/04/13 23:07:04;;;;;;;2.70;1.08;;;17.20;51.80;;;;;;5059224;28;20057;-70
2021/04/13 23:09:30;;;;;;;2.70;1.10;;;17.20;51.80;;;;;;5073456;28;20470;-70
2021/04/13 23:11:56;;;;;;;3.47;1.17;;;17.20;51.70;;;;;;5064134;28;20063;-69
2021/04/13 23:14:21;;;;;;;3.22;0.93;;;17.20;52.10;;;;;;5062652;28;20060;-70
2021/04/13 23:16:47;;;;;;;2.40;1.10;;;17.10;52.10;;;;;;5071576;28;20060;-70
2021/04/13 23:19:14;;;;;;;3.42;1.00;;;17.10;52.10;;;;;;5070257;28;20033;-70
2021/04/13 23:21:40;;;;;;;2.45;0.90;;;17.10;53.10;;;;;;5066283;28;20039;-70
2021/04/13 23:24:06;;;;;;;2.95;1.10;;;17.10;52.40;;;;;;5064448;28;20029;-70
2021/04/13 23:26:32;;;;;;;3.35;1.00;;;17.00;52.30;;;;;;5058007;28;20166;-70
2021/04/13 23:28:58;;;;;;;2.03;1.10;;;17.00;52.40;;;;;;5071730;28;20123;-70
2021/04/13 23:31:26;;;;;;;2.30;0.93;;;17.00;52.70;;;;;;5072484;28;20024;-70
2021/04/13 23:33:52;;;;;;;2.47;0.75;;;17.00;52.10;;;;;;5056236;28;20032;-70
2021/04/13 23:36:18;;;;;;;3.00;1.10;;;17.00;53.00;;;;;;5062891;28;20029;-70
2021/04/13 23:38:43;;;;;;;4.93;1.08;;;16.90;52.50;;;;;;5053178;28;20029;-70
2021/04/13 23:41:09;;;;;;;2.25;1.10;;;16.90;52.40;;;;;;5066863;28;20450;-70
2021/04/13 23:43:34;;;;;;;4.65;1.20;;;16.90;53.10;;;;;;5061582;28;20025;-70
2021/04/13 23:45:59;;;;;;;2.80;1.25;;;16.80;53.10;;;;;;5051985;28;20025;-70
2021/04/13 23:48:25;;;;;;;2.78;1.10;;;16.80;53.10;;;;;;5053639;28;20040;-70
2021/04/13 23:50:50;;;;;;;3.78;1.08;;;16.80;53.20;;;;;;5062464;28;20037;-70
2021/04/13 23:53:16;;;;;;;2.28;1.00;;;16.80;53.10;;;;;;5068223;28;20025;-70
2021/04/13 23:55:42;;;;;;;1.83;0.90;;;16.80;52.90;;;;;;5072345;28;20057;-70
2021/04/13 23:58:07;;;;;;;3.17;1.08;;;16.80;52.80;;;;;;5060401;28;20033;-70
